• Join FlightAware (Why Join?)
  • Login
  • US Flag 
02:26PM EDT


 

Airport Tracker/Info


-or-


 

Live Flight TrackerFlight Track Log ✈ SWD8 ✈ 25-Mar-2014 ✈ KFSD - KSTP

Flight Track Log - Related Links

Times and Time Zones

All times are in EDT time to prevent confusion due to time zone crossing. See the SWD8 flight status page for this flight to view local times or setup timezone preferences in your user account.

Time Position Orientation Groundspeed Altitude Reporting Facility
EDT Latitude Longitude Course Direction KTS MPH feet Rate Location/Type
08:24PM 43.5506 -96.7100 131° Southeast 115 132 4,100  Level Minneapolis Center
08:25PM 43.5664 -96.6631 65° Northeast 130 150 5,700 1,440 Climbing Minneapolis Center
08:26PM 43.5861 -96.6172 59° Northeast 137 158 7,100 1,320 Climbing Minneapolis Center
08:27PM 43.6044 -96.5700 62° Northeast 137 158 8,500 1,320 Climbing Minneapolis Center
08:28PM 43.6239 -96.5231 60° Northeast 137 158 9,900 840 Climbing Minneapolis Center
08:29PM 43.6461 -96.4692 60° Northeast 146 168 10,300 480 Climbing Minneapolis Center
08:30PM 43.6742 -96.3981 61° Northeast 164 189 11,000 300 Climbing Minneapolis Center
08:31PM 43.6986 -96.3369 61° Northeast 173 199 11,000  Level Minneapolis Center
08:32PM 43.7256 -96.2722 60° Northeast 184 212 11,000  Level Minneapolis Center
08:33PM 43.7506 -96.2075 62° Northeast 188 216 11,000  Level Minneapolis Center
08:34PM 43.7758 -96.1433 61° Northeast 188 216 11,000  Level Minneapolis Center
08:35PM 43.8014 -96.0811 60° Northeast 188 216 11,000  Level Minneapolis Center
08:36PM 43.8317 -96.0044 61° Northeast 188 216 11,000  Level Minneapolis Center
08:37PM 43.8564 -95.9411 62° Northeast 188 216 11,000  Level Minneapolis Center
08:39PM 43.8808 -95.8789 61° Northeast 188 216 11,000  Level Minneapolis Center
08:40PM 43.9058 -95.8153 61° Northeast 188 216 11,000  Level Minneapolis Center
08:41PM 43.9314 -95.7519 61° Northeast 188 216 11,000  Level Minneapolis Center
08:42PM 43.9608 -95.6753 62° Northeast 188 216 11,000  Level Minneapolis Center
08:43PM 43.9864 -95.6125 60° Northeast 188 216 11,000  Level Minneapolis Center
08:44PM 44.0114 -95.5464 62° Northeast 190 219 11,000  Level Minneapolis Center
08:45PM 44.0361 -95.4822 62° Northeast 190 219 11,000  Level Minneapolis Center
08:46PM 44.0622 -95.4164 61° Northeast 191 220 11,000  Level Minneapolis Center
08:47PM 44.0936 -95.3392 60° Northeast 191 220 11,000  Level Minneapolis Center
08:48PM 44.1169 -95.2733 64° Northeast 191 220 11,000  Level Minneapolis Center
08:49PM 44.1431 -95.2081 61° Northeast 191 220 11,000  Level Minneapolis Center
08:50PM 44.1681 -95.1433 62° Northeast 191 220 11,000  Level Minneapolis Center
08:51PM 44.1925 -95.0783 62° Northeast 191 220 11,000  Level Minneapolis Center
08:52PM 44.2169 -95.0125 63° Northeast 191 220 11,000  Level Minneapolis Center
08:53PM 44.2472 -94.9342 62° Northeast 191 220 11,000  Level Minneapolis Center
08:54PM 44.2739 -94.8683 60° Northeast 192 221 11,000  Level Minneapolis Center
08:55PM 44.2975 -94.8014 64° Northeast 194 223 11,000  Level Minneapolis Center
08:56PM 44.3231 -94.7350 62° Northeast 194 223 11,000  Level Minneapolis Center
08:57PM 44.3489 -94.6689 61° Northeast 194 223 11,000 -180 Level Minneapolis Center
08:58PM 44.3758 -94.5978 62° Northeast 194 223 10,700 -300 Descending Minneapolis Center
08:59PM 44.4000 -94.5325 63° Northeast 194 223 10,400 -540 Descending Minneapolis Center
09:00PM 44.4242 -94.4650 63° Northeast 194 223 9,700 -780 Descending Minneapolis Center
09:01PM 44.4536 -94.3844 63° Northeast 194 223 8,900 -780 Descending Minneapolis Center
09:02PM 44.4783 -94.3197 62° Northeast 190 219 8,200 -720 Descending Minneapolis Center
09:03PM 44.5019 -94.2519 64° Northeast 191 220 7,500 -660 Descending Minneapolis Center
09:04PM 44.5261 -94.1878 62° Northeast 186 214 6,900 -660 Descending Minneapolis Center
09:05PM 44.5497 -94.1236 63° Northeast 186 214 6,200 -660 Descending Minneapolis Center
09:06PM 44.5706 -94.0603 65° Northeast 181 208 5,600 -600 Descending Minneapolis Center
09:07PM 44.5844 -93.9744 77° East 186 214 5,000 -300 Descending Minneapolis Center
09:09PM 44.5967 -93.9042 76° East 186 214 5,000  Level Minneapolis Center
09:10PM 44.6094 -93.8339 76° East 186 214 5,000  Level Minneapolis Center
09:11PM 44.6217 -93.7636 76° East 186 214 5,000  Level Minneapolis Center
09:12PM 44.6350 -93.6936 75° East 186 214 5,000  Level Minneapolis Center
09:13PM 44.6556 -93.6264 67° East 186 214 5,000  Level Minneapolis Center
09:14PM 44.6867 -93.5542 59° Northeast 185 213 5,000  Level Minneapolis Center
09:15PM 44.7142 -93.4933 58° Northeast 184 212 5,000  Level Minneapolis Center
09:16PM 44.7419 -93.4328 57° Northeast 184 212 5,000  Level Minneapolis Center
09:17PM 44.7694 -93.3717 58° Northeast 184 212 5,000  Level Minneapolis Center
09:18PM 44.7978 -93.3106 57° Northeast 184 212 5,000  Level Minneapolis Center
09:19PM 44.8258 -93.2486 57° Northeast 184 212 5,000 -300 Level Minneapolis Center
09:20PM 44.8583 -93.1939 50° Northeast 181 208 4,500 -720 Descending Minneapolis Center
09:21PM 44.8925 -93.1425 47° Northeast 181 208 3,600 -1,140 Descending Minneapolis Center
09:22PM 44.9319 -93.0836 47° Northeast 175 201 2,200 -1,200 Descending Minneapolis Center
09:23PM 44.9450 -93.0408 67° East 116 133 1,200 -540 Descending Minneapolis Center
09:24PM 44.9225 -93.0478 192° South 101 116 1,100 -120 Descending Minneapolis Center